メインページ
METAR-TAF:

METAR-TAF

空港 :

ナナイモ空港

ナナイモ, ブリティッシュコロンビア州, カナダ

緯度: 49-03N, 経度: 123-52W, 海抜: 28m

現時点の気象観測

当レポートは13分前の02:00(UTC)に作成
の風 3kt、から西/北西の間で変化する
気温 3°C
湿度 87%
気圧 1014 hPa
視程: 32.2km
高度17000ftの雲はほとんどない
高度23000ftの雲は散在している

METAR: CYCD 210200Z 19003KT 180V290 20SM FEW170 SCT230 03/01 A2994 RMK AC1CI2 SLP142

時間: 18:13 (02:13 UTC)

予報

当レポートは2時間35分前の23:38(UTC)に作成
予報は21日の 00時(UTC)から 21日の 05時(UTC)まで有効
西の風 8kt
視程: 10km
高度2500ftの雲は散在している
高度15000ftの雲は散在している
高度25000ftの千切れ雲あり
21日の 01時(UTC)から 21日の 03時(UTC)まで徐々に
変向風 3kt

TAF: CYCD 202338Z 2100/2105 28008KT P6SM SCT025 SCT150 BKN250 BECMG 2101/2103 VRB03KT RMK NXT FCST WILL BE ISSUED AT 211545Z

4,000以上の空港の気象観測と天気予報(METAR報とTAF報)

利用可能な観測所は地図上に黄色い丸と赤い丸で示す。

丸の上にカーソルを重ねると観測所名を参照できる。

次にクリックすると気象観測と天気予報を参照できる。

マップの切り替え:黒色「×」印の緑ボタンをクリックして拡大、「-」印の緑ボタンをクリックして縮小、緑色の三角印をクリックして隣りの地図に切り替え


METAR-TAF: